Hlavní strana
METAR-TAF:

METAR-TAF

Letiště :

Karáčí, Pákistán

Mezinárodní letiště Džinnáh

zeměpisná šířka: 24-54N, zeměpisná délka: 067-08E, výška: 21 m

Aktuální stav počasí

Zpráva byla vytvořena před 55 minutami, v 20:55 UTC
Severozápadní vítr 5 kt
Teplota 20°C
Vlhkost vzduchu 21%
Tlak 1011 hPa
Viditelnost: 5000 m
zákal

METAR: OPKC 222055Z 32005KT 5000 HZ NSC 20/M03 Q1011 NOSIG

Čas: 02:50 (21:50 UTC)

Předpověď počasí

Zpráva byla vytvořena před 5 hodinami a 50 minutami, v 16:00 UTC
Předpověď platná od 22 v 18 UTC do 23 v 24 UTC
Severoseverozápadní vítr 8 kt
Viditelnost: 4000 m
zákal
Dočasný
od 23 v 00 UTC do 23 v 04 UTC
Severozápadní vítr 5 kt
Viditelnost: 3000 m
kouř
Od 23 v 0500 UTC
Severozápadní vítr 54 kt s nárazy do 15 kt
Viditelnost: 6000 m
Změna
od 23 v 10 UTC do 23 v 12 UTC
Západojihozápadní vítr 8 kt
Viditelnost: 5000 m
zákal

TAF: OPKC 221600Z 2218/2324 33008KT 4000 HZ NSC TEMPO 2300/2304 31005KT 3000 FU NSC FM230500 31005415KT 6000 NSC BECMG 2310/2312 25008KT 5000 HZ NSC

Stav a předpovědi počasí z více než 4 000 letišť (zprávy METAR a TAF).

Červené a žluté tečky na mapě představují dostupné meteorologické stanice.

Když kurzor umístíte na tečku, zobrazí se název stanice.

Pak kliknutím zobrazíte stav a předpověď počasí.

Chcete-li změnit mapu, kliknutím na zelené tlačítko se znaménkem +mapu přiblížíte, kliknutím na zelené tlačítko se znaménkem – mapu oddálíte a kliknutím na zelené šipky přejdete na sousední mapy.


METAR-TAF: